Time;durP1;ratioP1;P1;durP2;ratioP2;P2;SDS_P1;SDS_P2;PMS_P1;PMS_P2;Temp;Humidity;BMP_temperature;BMP_pressure;BME280_temperature;BME280_humidity;BME280_pressure;Samples;Min_cycle;Max_cycle;Signal;HPM_P1;HPM_P2
2022/05/15 00:01:02;;;;;;;3.72;2.47;;;;;;;20.02;66.70;99610.66;5124788;28;20432;-87
2022/05/15 00:03:27;;;;;;;3.65;2.47;;;;;;;20.25;66.67;99641.50;5124975;27;20118;-88
2022/05/15 00:05:56;;;;;;;4.80;2.42;;;;;;;20.19;65.49;99644.53;5124354;27;20546;-87
2022/05/15 00:08:22;;;;;;;2.45;1.92;;;;;;;20.28;65.54;99653.84;5124237;27;20034;-88
2022/05/15 00:10:48;;;;;;;3.25;2.45;;;;;;;20.00;64.78;99621.44;5124939;27;20107;-87
2022/05/15 00:13:14;;;;;;;3.30;2.17;;;;;;;19.77;65.58;99601.28;5124824;27;20114;-88
2022/05/15 00:15:40;;;;;;;2.30;1.40;;;;;;;19.83;65.07;99629.50;5124846;27;20035;-86
2022/05/15 00:18:07;;;;;;;1.63;1.42;;;;;;;19.93;65.15;99651.31;5122812;28;20404;-87
2022/05/15 00:20:34;;;;;;;4.95;2.58;;;;;;;19.63;65.59;99585.97;5124524;27;20036;-86
2022/05/15 00:23:00;;;;;;;4.30;2.33;;;;;;;19.95;64.69;99617.28;5124782;27;20061;-87
2022/05/15 00:25:26;;;;;;;2.30;1.92;;;;;;;19.93;64.97;99614.69;5123960;27;20548;-87
2022/05/15 00:27:51;;;;;;;3.80;3.13;;;;;;;19.82;64.92;99622.47;5124413;27;20034;-86
2022/05/15 00:30:18;;;;;;;2.75;1.85;;;;;;;20.05;64.73;99650.66;5124575;27;20469;-87
2022/05/15 00:32:43;;;;;;;2.47;1.45;;;;;;;19.93;63.96;99640.59;5120587;28;20042;-87
2022/05/15 00:35:10;;;;;;;2.50;1.60;;;;;;;19.87;64.18;99619.53;5124413;27;20043;-87
2022/05/15 00:37:35;;;;;;;4.15;1.83;;;;;;;19.79;63.52;99606.56;5120679;28;20406;-86
2022/05/15 00:40:02;;;;;;;2.35;2.15;;;;;;;20.03;63.42;99629.31;5123949;28;20110;-85
2022/05/15 00:42:28;;;;;;;2.72;1.30;;;;;;;20.06;62.73;99635.44;5123593;27;20078;-85
2022/05/15 00:44:54;;;;;;;2.45;1.48;;;;;;;19.96;62.66;99627.06;5122747;27;20079;-85
2022/05/15 00:47:20;;;;;;;3.10;2.25;;;;;;;20.16;61.72;99645.56;5123239;27;20451;-85
2022/05/15 00:49:47;;;;;;;2.67;1.50;;;;;;;20.31;61.51;99640.28;5122943;27;20117;-85
2022/05/15 00:52:17;;;;;;;2.42;1.40;;;;;;;20.12;61.86;99646.66;5123604;27;20043;-86
2022/05/15 00:54:48;;;;;;;2.58;2.05;;;;;;;20.14;60.25;99618.00;5106390;28;20035;-86
2022/05/15 00:57:23;;;;;;;2.97;1.70;;;;;;;20.15;60.41;99643.81;5111334;27;20020;-85
2022/05/15 00:59:59;;;;;;;2.42;1.75;;;;;;;20.40;61.20;99666.53;5108002;28;20085;-85
2022/05/15 01:02:29;;;;;;;2.55;1.83;;;;;;;20.39;60.77;99670.19;5109897;28;20036;-85
2022/05/15 01:04:55;;;;;;;2.38;1.27;;;;;;;20.37;60.73;99658.69;5109577;28;20035;-86
2022/05/15 01:07:20;;;;;;;2.95;1.52;;;;;;;20.29;59.95;99645.72;5109835;28;20424;-86
2022/05/15 01:09:46;;;;;;;2.50;1.60;;;;;;;20.51;59.98;99669.50;5110470;28;20114;-85
2022/05/15 01:12:13;;;;;;;4.75;1.75;;;;;;;20.09;60.30;99644.16;5107857;28;20048;-85
2022/05/15 01:14:42;;;;;;;3.22;2.28;;;;;;;20.14;60.35;99639.44;5104115;28;20031;-85
2022/05/15 01:17:09;;;;;;;2.13;1.65;;;;;;;20.29;59.16;99637.69;5109606;27;20032;-86
2022/05/15 01:19:39;;;;;;;2.08;1.65;;;;;;;20.45;59.56;99667.16;5109558;28;20031;-86
2022/05/15 01:22:06;;;;;;;1.75;1.35;;;;;;;20.29;59.26;99628.78;5109932;28;20032;-86
2022/05/15 01:24:32;;;;;;;3.30;1.63;;;;;;;20.39;58.87;99641.59;5109514;28;20042;-86
2022/05/15 01:27:02;;;;;;;3.50;1.75;;;;;;;20.58;58.67;99670.88;5109707;28;20500;-85
2022/05/15 01:29:31;;;;;;;1.90;1.33;;;;;;;20.52;58.58;99671.22;5108022;28;20035;-86
2022/05/15 01:31:58;;;;;;;1.77;1.10;;;;;;;20.30;58.90;99644.78;5109613;28;20268;-85
2022/05/15 01:34:24;;;;;;;2.45;1.50;;;;;;;20.18;58.59;99626.72;5109986;28;20035;-86
2022/05/15 01:36:50;;;;;;;1.20;0.95;;;;;;;20.10;58.17;99623.63;5108279;28;20039;-86
2022/05/15 01:39:16;;;;;;;3.97;2.15;;;;;;;20.47;57.54;99670.63;5109229;28;20466;-86
2022/05/15 01:41:41;;;;;;;3.95;2.45;;;;;;;20.47;57.32;99659.03;5109522;28;20035;-85
2022/05/15 01:44:07;;;;;;;2.05;1.40;;;;;;;20.42;56.99;99637.88;5108805;28;20500;-86
2022/05/15 01:46:32;;;;;;;2.00;0.90;;;;;;;20.28;57.63;99645.81;5109190;28;20524;-85
2022/05/15 01:48:59;;;;;;;2.50;1.92;;;;;;;20.52;56.91;99662.31;5109445;28;20044;-85
2022/05/15 01:51:26;;;;;;;1.40;1.20;;;;;;;20.33;57.38;99662.50;5109650;28;20070;-85
2022/05/15 01:53:52;;;;;;;2.00;1.13;;;;;;;20.55;56.51;99678.22;5108195;28;20126;-85
2022/05/15 01:56:18;;;;;;;1.55;1.35;;;;;;;20.35;57.17;99658.75;5109087;28;20122;-87
2022/05/15 01:58:44;;;;;;;2.38;1.00;;;;;;;20.56;56.52;99666.56;5107496;28;20024;-86
2022/05/15 02:01:09;;;;;;;2.17;1.00;;;;;;;20.68;56.68;99694.50;5109629;28;20028;-87
2022/05/15 02:03:35;;;;;;;2.60;1.10;;;;;;;20.51;57.16;99671.28;5107693;28;20135;-87
2022/05/15 02:06:02;;;;;;;2.33;1.17;;;;;;;20.52;57.55;99681.06;5108048;28;20121;-86
2022/05/15 02:08:32;;;;;;;1.80;1.02;;;;;;;20.41;58.71;99664.75;5107790;28;20039;-87
2022/05/15 02:10:58;;;;;;;2.28;1.35;;;;;;;20.50;60.52;99705.28;5108555;28;20094;-86
2022/05/15 02:13:24;;;;;;;2.55;1.45;;;;;;;20.48;60.87;99684.88;5107882;28;20157;-86
2022/05/15 02:15:49;;;;;;;2.15;1.95;;;;;;;20.00;61.58;99658.94;5108726;28;20032;-87
2022/05/15 02:18:15;;;;;;;5.30;1.52;;;;;;;20.07;61.13;99680.88;5108000;28;20050;-86
2022/05/15 02:20:41;;;;;;;1.85;1.65;;;;;;;19.79;61.91;99650.25;5108712;28;20038;-86
2022/05/15 02:23:06;;;;;;;3.45;1.48;;;;;;;20.21;61.73;99705.06;5108663;28;20550;-86
2022/05/15 02:25:32;;;;;;;1.45;1.17;;;;;;;19.90;62.33;99663.03;5107758;28;20120;-87
2022/05/15 02:27:58;;;;;;;2.28;1.70;;;;;;;20.11;60.93;99709.22;5106714;28;20036;-86
2022/05/15 02:30:24;;;;;;;2.60;1.50;;;;;;;19.92;61.69;99693.25;5108739;28;20032;-86
2022/05/15 02:32:50;;;;;;;1.63;1.40;;;;;;;19.70;61.88;99685.47;5107993;28;20039;-86
2022/05/15 02:35:16;;;;;;;2.67;1.33;;;;;;;19.33;62.89;99698.09;5107882;28;20497;-86
2022/05/15 02:37:41;;;;;;;2.80;1.58;;;;;;;19.32;63.32;99699.03;5108479;28;20041;-85
2022/05/15 02:40:08;;;;;;;3.35;2.30;;;;;;;18.93;63.20;99660.00;5107988;28;20418;-85
2022/05/15 02:42:34;;;;;;;4.63;2.53;;;;;;;19.03;62.86;99685.34;5108248;28;20085;-85
2022/05/15 02:44:59;;;;;;;2.38;1.90;;;;;;;19.20;62.40;99707.69;5107554;28;20466;-85
2022/05/15 02:47:25;;;;;;;2.80;1.83;;;;;;;18.82;63.24;99689.06;5107581;28;20049;-86
2022/05/15 02:52:34;;;;;;;2.13;1.67;;;;;;;18.90;64.46;99705.59;5107496;28;20124;-85
2022/05/15 02:55:00;;;;;;;3.00;2.05;;;;;;;19.02;63.51;99726.38;5108405;28;20496;-86
2022/05/15 02:57:25;;;;;;;2.10;1.52;;;;;;;18.93;63.38;99706.31;5106987;28;20031;-86
2022/05/15 02:59:51;;;;;;;2.70;1.67;;;;;;;18.83;63.53;99706.81;5107866;28;20035;-85
2022/05/15 03:02:16;;;;;;;2.35;1.48;;;;;;;18.67;64.15;99728.91;5106394;28;20508;-85
2022/05/15 03:04:42;;;;;;;1.80;1.40;;;;;;;18.56;64.46;99701.88;5107479;28;20058;-85
2022/05/15 03:07:07;;;;;;;3.58;1.40;;;;;;;18.35;64.92;99703.72;5106123;28;20436;-85
2022/05/15 03:09:34;;;;;;;3.28;2.20;;;;;;;18.22;65.79;99709.66;5107681;28;20027;-86
2022/05/15 03:12:00;;;;;;;3.58;2.50;;;;;;;18.34;66.04;99737.59;5107267;28;20040;-86
2022/05/15 03:14:25;;;;;;;2.90;1.70;;;;;;;18.34;66.01;99713.56;5105928;28;20417;-86
2022/05/15 03:16:51;;;;;;;3.83;1.83;;;;;;;18.40;65.81;99725.78;5107388;28;20058;-87
2022/05/15 03:19:17;;;;;;;4.18;2.00;;;;;;;18.47;65.86;99750.38;5106287;27;20106;-86
2022/05/15 03:21:42;;;;;;;2.60;1.48;;;;;;;18.27;65.42;99696.09;5106777;28;20114;-86
2022/05/15 03:24:10;;;;;;;3.28;1.83;;;;;;;18.61;65.01;99748.78;5105535;28;20562;-86
2022/05/15 03:26:39;;;;;;;3.25;2.47;;;;;;;18.49;65.15;99724.44;5107570;28;20556;-86
2022/05/15 03:29:06;;;;;;;2.33;1.70;;;;;;;18.47;65.56;99727.19;5107653;28;20031;-86
2022/05/15 03:31:35;;;;;;;4.18;1.90;;;;;;;18.53;65.00;99748.28;5107251;28;20891;-86
2022/05/15 03:34:01;;;;;;;2.55;1.67;;;;;;;18.43;64.63;99736.31;5106267;28;20039;-86
2022/05/15 03:36:26;;;;;;;2.83;1.98;;;;;;;18.57;64.36;99749.88;5105923;28;20254;-86
2022/05/15 03:38:52;;;;;;;2.05;1.42;;;;;;;18.66;64.67;99755.72;5106592;28;20865;-87
2022/05/15 03:41:18;;;;;;;2.80;1.75;;;;;;;18.54;64.61;99736.66;5104920;28;20104;-86
2022/05/15 03:43:43;;;;;;;4.90;2.78;;;;;;;18.60;64.48;99740.84;5106369;28;20481;-86
2022/05/15 03:46:09;;;;;;;3.17;2.13;;;;;;;18.58;64.63;99726.69;5105248;28;20066;-86
2022/05/15 03:48:35;;;;;;;2.60;1.80;;;;;;;18.76;64.07;99746.31;5105963;28;20043;-86
2022/05/15 03:51:01;;;;;;;5.10;2.60;;;;;;;18.74;63.67;99709.00;5106816;28;20044;-86
2022/05/15 03:53:26;;;;;;;3.60;1.83;;;;;;;18.86;63.96;99731.63;5104654;28;20036;-86
2022/05/15 03:55:55;;;;;;;2.75;1.50;;;;;;;19.07;63.59;99728.81;5106788;28;20035;-85
2022/05/15 03:58:22;;;;;;;3.08;2.50;;;;;;;19.09;64.12;99722.47;5106437;28;20024;-85
2022/05/15 04:00:48;;;;;;;3.60;1.85;;;;;;;19.29;64.20;99715.22;5106295;28;20028;-86
2022/05/15 04:03:14;;;;;;;2.42;2.13;;;;;;;19.27;63.68;99698.41;5106680;28;20036;-87
2022/05/15 04:05:39;;;;;;;3.75;2.60;;;;;;;19.48;64.90;99726.75;5105315;28;20031;-87
2022/05/15 04:08:05;;;;;;;2.65;1.77;;;;;;;19.55;63.51;99737.13;5106278;28;20484;-87
2022/05/15 04:10:30;;;;;;;3.58;2.80;;;;;;;19.52;64.12;99706.03;5106150;28;20039;-86
2022/05/15 04:12:56;;;;;;;4.05;2.00;;;;;;;19.78;64.43;99726.09;5107187;28;20023;-86
2022/05/15 04:15:21;;;;;;;4.78;2.13;;;;;;;19.85;64.22;99735.56;5104511;28;20046;-87
2022/05/15 04:17:49;;;;;;;2.85;2.13;;;;;;;19.91;63.40;99753.13;5105376;28;20048;-86
2022/05/15 04:20:18;;;;;;;5.82;2.38;;;;;;;20.10;62.29;99738.75;5106182;28;20032;-86
2022/05/15 04:22:43;;;;;;;3.22;2.28;;;;;;;20.16;60.85;99736.59;5106095;28;20066;-86
2022/05/15 04:25:11;;;;;;;4.43;3.08;;;;;;;20.13;61.21;99742.13;5104981;28;20487;-85
2022/05/15 04:27:37;;;;;;;5.03;2.15;;;;;;;20.29;61.58;99739.47;5106603;28;20048;-87
2022/05/15 04:30:04;;;;;;;4.28;2.60;;;;;;;20.25;61.38;99716.50;5106475;28;20485;-85
2022/05/15 04:32:30;;;;;;;4.50;3.08;;;;;;;20.44;62.27;99755.66;5101628;28;20028;-86
2022/05/15 04:34:55;;;;;;;3.65;2.35;;;;;;;20.54;62.14;99762.22;5110549;28;20034;-87
2022/05/15 04:37:21;;;;;;;2.92;1.90;;;;;;;20.13;62.15;99714.47;5109906;28;20116;-86
2022/05/15 04:39:47;;;;;;;2.88;2.42;;;;;;;20.57;63.66;99765.63;5110291;28;20043;-86
2022/05/15 04:42:12;;;;;;;3.55;1.75;;;;;;;20.45;63.69;99728.78;5109935;28;20778;-86
2022/05/15 04:44:38;;;;;;;5.45;3.28;;;;;;;20.52;63.47;99731.97;5110638;28;20579;-85
2022/05/15 04:47:03;;;;;;;3.35;1.77;;;;;;;20.65;63.81;99737.53;5108554;28;20035;-86
2022/05/15 04:49:29;;;;;;;4.13;2.95;;;;;;;20.71;63.67;99739.88;5109629;28;20115;-84
2022/05/15 04:51:54;;;;;;;5.75;3.03;;;;;;;20.93;63.93;99744.91;5110047;28;20036;-85
2022/05/15 04:54:20;;;;;;;3.25;2.55;;;;;;;21.37;62.39;99754.84;5100711;28;20130;-85
2022/05/15 04:56:45;;;;;;;3.58;2.75;;;;;;;21.75;59.43;99751.75;5091343;28;20024;-83
2022/05/15 04:59:11;;;;;;;4.70;3.17;;;;;;;22.21;58.43;99772.22;5107918;28;20481;-84
2022/05/15 05:01:36;;;;;;;2.25;1.95;;;;;;;22.50;58.50;99783.84;5109696;28;20089;-84
2022/05/15 05:04:02;;;;;;;1.98;1.60;;;;;;;22.49;58.18;99754.38;5108842;27;20039;-85
2022/05/15 05:06:28;;;;;;;3.88;1.63;;;;;;;22.67;58.49;99765.78;5096733;28;20036;-85
2022/05/15 05:08:54;;;;;;;2.67;1.63;;;;;;;23.16;57.33;99780.59;5090053;28;20044;-85
2022/05/15 05:11:21;;;;;;;3.75;3.00;;;;;;;23.09;55.28;99764.00;5100065;28;20500;-85
2022/05/15 05:13:46;;;;;;;2.80;1.55;;;;;;;22.99;51.73;99773.63;5100798;28;20031;-85
2022/05/15 05:16:12;;;;;;;1.73;1.23;;;;;;;22.78;52.78;99763.28;5099548;28;20421;-83
2022/05/15 05:18:38;;;;;;;2.95;1.83;;;;;;;22.65;52.57;99755.16;5098770;28;20023;-84
2022/05/15 05:21:04;;;;;;;3.53;2.50;;;;;;;23.03;50.78;99780.50;5105474;28;20042;-86
2022/05/15 05:23:30;;;;;;;1.75;1.08;;;;;;;23.26;49.17;99764.72;5109849;28;20031;-88
2022/05/15 05:25:56;;;;;;;3.63;2.03;;;;;;;23.48;48.21;99789.22;5108141;28;20047;-87
2022/05/15 05:28:23;;;;;;;3.58;2.00;;;;;;;23.52;48.05;99777.25;5108413;28;20035;-86
2022/05/15 05:30:49;;;;;;;1.15;0.73;;;;;;;23.45;47.85;99748.16;5109578;28;20039;-84
2022/05/15 05:33:15;;;;;;;2.13;1.55;;;;;;;23.55;47.22;99751.97;5109564;28;20027;-84
2022/05/15 05:35:40;;;;;;;2.20;1.85;;;;;;;23.76;46.72;99773.88;5108302;28;20440;-85
2022/05/15 05:38:06;;;;;;;3.33;1.38;;;;;;;23.52;46.89;99736.88;5109739;28;20124;-84
2022/05/15 05:40:32;;;;;;;0.60;0.60;;;;;;;23.68;46.31;99741.22;5109098;28;20453;-84
2022/05/15 05:42:57;;;;;;;1.88;1.10;;;;;;;24.17;46.54;99777.38;5107560;28;20118;-83
2022/05/15 05:45:23;;;;;;;1.75;1.15;;;;;;;24.06;47.33;99760.13;5108840;28;20109;-85
2022/05/15 05:47:50;;;;;;;2.35;1.23;;;;;;;23.85;47.29;99732.88;5108547;27;20031;-85
2022/05/15 05:50:19;;;;;;;1.70;0.93;;;;;;;23.81;45.84;99725.09;5106283;28;20039;-86
2022/05/15 05:52:45;;;;;;;2.55;1.27;;;;;;;24.07;44.88;99780.72;5109335;28;20115;-82
2022/05/15 05:55:14;;;;;;;2.42;1.40;;;;;;;23.90;44.70;99746.03;5106355;28;20163;-82
2022/05/15 05:57:41;;;;;;;2.78;1.20;;;;;;;24.28;46.96;99737.94;5108780;28;20031;-83
2022/05/15 06:00:08;;;;;;;2.85;1.95;;;;;;;24.20;44.98;99761.00;5108739;28;20086;-82
2022/05/15 06:02:33;;;;;;;2.22;1.10;;;;;;;24.13;45.03;99764.13;5103102;28;20084;-83
2022/05/15 06:04:59;;;;;;;4.43;1.45;;;;;;;24.47;45.02;99742.84;5105593;28;20425;-83
2022/05/15 06:07:26;;;;;;;1.88;1.63;;;;;;;24.80;44.98;99779.16;5107513;28;20082;-83
2022/05/15 06:09:52;;;;;;;5.15;2.00;;;;;;;24.39;43.89;99758.72;5107752;28;20032;-84
2022/05/15 06:12:21;;;;;;;0.90;0.70;;;;;;;24.94;44.54;99761.09;5108932;28;20032;-84
2022/05/15 06:14:47;;;;;;;1.23;0.98;;;;;;;25.29;42.39;99757.66;5107239;28;20132;-84
2022/05/15 06:17:12;;;;;;;2.60;1.75;;;;;;;25.33;43.64;99740.22;5103389;28;20718;-85
2022/05/15 06:19:38;;;;;;;1.85;1.10;;;;;;;25.72;42.72;99757.06;5108507;28;20847;-85
2022/05/15 06:22:04;;;;;;;1.13;0.82;;;;;;;25.32;41.82;99749.31;5108608;28;20024;-86
2022/05/15 06:24:30;;;;;;;1.85;1.05;;;;;;;25.09;41.07;99741.09;5102860;28;20035;-85
2022/05/15 06:27:02;;;;;;;1.17;0.80;;;;;;;25.09;40.79;99748.31;5095264;28;20027;-84
2022/05/15 06:29:28;;;;;;;1.58;0.95;;;;;;;25.64;41.75;99771.16;5087837;28;20024;-86
2022/05/15 06:31:53;;;;;;;1.45;0.90;;;;;;;25.69;41.60;99751.91;5091723;28;20062;-85
2022/05/15 06:34:19;;;;;;;4.75;1.85;;;;;;;25.92;40.84;99763.63;5108039;28;20063;-87
2022/05/15 06:36:45;;;;;;;2.45;1.13;;;;;;;25.90;40.04;99736.72;5108128;28;20095;-88
2022/05/15 06:39:10;;;;;;;2.28;1.27;;;;;;;26.02;38.96;99732.22;5108598;28;20101;-84
2022/05/15 06:41:37;;;;;;;2.90;0.93;;;;;;;26.07;39.32;99732.72;5108440;28;20457;-86
2022/05/15 06:44:03;;;;;;;1.88;1.27;;;;;;;26.40;39.15;99743.66;5103048;28;20035;-87
2022/05/15 06:46:29;;;;;;;1.77;1.33;;;;;;;26.64;39.62;99773.28;5087475;28;20036;-85
2022/05/15 06:48:54;;;;;;;1.52;0.93;;;;;;;26.59;36.78;99746.59;5107819;28;20103;-86
2022/05/15 06:51:20;;;;;;;1.70;1.05;;;;;;;26.39;37.20;99731.97;5108402;28;20541;-87
2022/05/15 06:53:47;;;;;;;1.17;0.93;;;;;;;26.46;36.14;99767.50;5108175;28;20032;-86
2022/05/15 06:58:57;;;;;;;;;;;;;;;26.41;34.99;99762.47;5108053;28;20135;-87
2022/05/15 07:01:23;;;;;;;1.48;1.17;;;;;;;26.67;34.95;99770.34;5108144;28;20009;-86
2022/05/15 07:03:49;;;;;;;2.50;1.35;;;;;;;26.59;33.62;99761.97;5107639;28;20027;-87
2022/05/15 07:06:15;;;;;;;1.83;0.90;;;;;;;26.86;33.95;99763.44;5108204;28;20031;-86
2022/05/15 07:08:41;;;;;;;1.27;0.90;;;;;;;26.59;35.05;99770.94;5108140;28;20877;-89
2022/05/15 07:11:07;;;;;;;3.30;0.80;;;;;;;26.53;34.86;99757.06;5106982;28;20118;-86
2022/05/15 07:13:32;;;;;;;1.10;1.02;;;;;;;26.93;36.16;99775.50;5107537;28;20540;-86
2022/05/15 07:15:59;;;;;;;1.80;0.90;;;;;;;27.18;35.51;99770.75;5104977;27;20488;-86
2022/05/15 07:18:25;;;;;;;1.40;1.08;;;;;;;26.96;34.71;99748.19;5097813;28;20500;-85
2022/05/15 07:20:52;;;;;;;2.55;0.60;;;;;;;26.94;35.11;99756.41;5107117;28;20061;-86
2022/05/15 07:23:19;;;;;;;4.43;1.15;;;;;;;26.93;35.09;99738.44;5107273;28;20036;-85
2022/05/15 07:25:45;;;;;;;2.03;1.13;;;;;;;27.14;34.62;99772.84;5110194;28;20031;-85
2022/05/15 07:28:11;;;;;;;2.45;1.52;;;;;;;27.16;34.41;99732.97;5102549;27;20032;-84
2022/05/15 07:30:38;;;;;;;1.85;1.58;;;;;;;26.61;34.21;99739.22;5097504;28;20457;-84
2022/05/15 07:33:03;;;;;;;0.63;0.63;;;;;;;26.95;34.87;99771.66;5090579;28;20023;-86
2022/05/15 07:35:29;;;;;;;1.33;1.00;;;;;;;27.18;35.21;99746.38;5104909;28;20038;-86
2022/05/15 07:37:55;;;;;;;1.45;0.90;;;;;;;27.38;34.26;99750.16;5106551;28;20085;-86
2022/05/15 07:40:21;;;;;;;1.17;0.82;;;;;;;27.38;35.19;99744.75;5106428;28;20032;-85
2022/05/15 07:42:47;;;;;;;1.70;0.75;;;;;;;27.64;33.92;99756.06;5103860;28;20032;-85
2022/05/15 07:45:14;;;;;;;0.95;0.80;;;;;;;27.52;33.23;99755.25;5106464;28;20070;-90
2022/05/15 07:47:39;;;;;;;1.30;1.02;;;;;;;27.41;33.76;99764.28;5105702;28;20085;-86
2022/05/15 07:50:06;;;;;;;1.30;0.57;;;;;;;27.58;34.55;99714.09;5101537;28;20031;-86
2022/05/15 07:52:32;;;;;;;2.47;0.95;;;;;;;27.43;34.73;99718.13;5107176;28;20027;-86
2022/05/15 07:54:58;;;;;;;2.33;0.90;;;;;;;27.13;33.03;99725.97;5106939;28;20699;-87
2022/05/15 07:57:23;;;;;;;1.10;0.68;;;;;;;27.25;33.78;99762.00;5106214;28;20043;-86
2022/05/15 07:59:50;;;;;;;1.92;1.75;;;;;;;27.25;33.84;99766.53;5108131;28;20031;-87
2022/05/15 08:02:17;;;;;;;1.85;1.13;;;;;;;27.63;32.36;99760.59;5106828;28;20077;-87
2022/05/15 08:10:12;;;;;;;1.42;0.70;;;;;;;27.81;32.92;99762.75;5112004;28;20542;-84
2022/05/15 08:12:38;;;;;;;2.65;1.70;;;;;;;27.77;32.76;99750.44;5111265;28;20039;-85
2022/05/15 08:15:06;;;;;;;0.75;0.63;;;;;;;27.90;31.68;99752.94;5111508;28;20050;-84
2022/05/15 08:17:31;;;;;;;0.90;0.65;;;;;;;28.23;32.60;99754.59;5111281;28;20130;-86
2022/05/15 08:23:33;;;;;;;4.57;1.02;;;;;;;28.27;29.64;99744.34;5111216;28;20091;-85
2022/05/15 08:25:44;;;;;;;1.55;1.10;;;;;;;28.54;31.03;99741.03;5102603;28;20047;-83
2022/05/15 08:28:10;;;;;;;0.60;0.60;;;;;;;28.20;31.06;99723.19;5098208;28;20062;-85
2022/05/15 08:30:35;;;;;;;1.77;0.95;;;;;;;29.18;30.12;99768.75;5090297;28;20486;-85
2022/05/15 08:33:01;;;;;;;1.95;1.50;;;;;;;30.00;29.72;99759.38;5090690;28;20024;-84
2022/05/15 08:35:28;;;;;;;1.83;0.88;;;;;;;29.65;29.22;99750.78;5090566;28;20024;-86
2022/05/15 08:37:54;;;;;;;1.77;1.00;;;;;;;28.95;31.14;99744.59;5100430;28;20038;-85
2022/05/15 08:40:25;;;;;;;0.90;0.45;;;;;;;28.66;31.27;99771.66;5109700;28;20040;-85
2022/05/15 08:42:56;;;;;;;1.55;0.70;;;;;;;28.97;31.35;99733.59;5109021;28;20086;-85
2022/05/15 08:45:41;;;;;;;20.80;1.35;;;;;;;29.01;30.26;99752.19;5108428;28;20097;-85
2022/05/15 08:48:12;;;;;;;6.30;0.95;;;;;;;28.63;30.06;99767.38;5108256;28;20118;-84
2022/05/15 08:50:48;;;;;;;0.45;0.45;;;;;;;28.94;29.99;99768.16;5109817;28;20382;-84
2022/05/15 08:53:37;;;;;;;1.25;0.68;;;;;;;29.48;29.64;99737.09;5108311;28;20389;-83
2022/05/15 08:56:07;;;;;;;0.70;0.52;;;;;;;29.34;29.63;99711.22;5103388;28;20027;-85
2022/05/15 08:58:44;;;;;;;1.60;0.70;;;;;;;29.52;30.24;99773.81;5109582;27;20031;-84
2022/05/15 09:01:14;;;;;;;3.72;0.70;;;;;;;29.53;28.00;99734.78;5110197;28;20028;-86
2022/05/15 09:03:40;;;;;;;0.85;0.40;;;;;;;29.31;27.07;99731.38;5108609;28;20089;-85
2022/05/15 09:06:28;;;;;;;1.85;0.52;;;;;;;29.36;26.05;99728.22;5108736;28;20031;-84
2022/05/15 09:09:10;;;;;;;1.52;0.85;;;;;;;29.17;26.36;99764.34;5077222;27;20089;-84
2022/05/15 09:11:46;;;;;;;1.20;0.60;;;;;;;29.17;27.84;99770.63;5108198;28;20417;-84
2022/05/15 09:14:32;;;;;;;1.25;0.95;;;;;;;29.26;28.42;99758.09;5109640;28;20031;-82
2022/05/15 09:17:09;;;;;;;1.05;0.85;;;;;;;29.21;25.79;99747.66;5108692;28;20039;-85
2022/05/15 09:19:37;;;;;;;1.35;0.55;;;;;;;29.03;27.63;99747.47;5108184;28;20034;-83
2022/05/15 09:22:04;;;;;;;2.50;1.27;;;;;;;29.18;27.84;99738.91;5109238;28;20039;-84
2022/05/15 09:24:39;;;;;;;1.00;0.73;;;;;;;29.54;27.73;99718.34;5109069;28;20054;-84
2022/05/15 09:27:26;;;;;;;2.28;0.95;;;;;;;29.92;33.75;99727.47;5110197;28;20522;-83
2022/05/15 09:30:01;;;;;;;1.02;0.65;;;;;;;30.26;26.69;99758.69;5107399;28;20150;-83
2022/05/15 09:32:35;;;;;;;1.13;0.70;;;;;;;29.64;26.54;99748.22;5110105;28;20035;-82
2022/05/15 09:35:02;;;;;;;1.83;0.98;;;;;;;29.67;28.26;99726.19;5109676;28;20485;-85
2022/05/15 09:40:42;;;;;;;1.08;0.88;;;;;;;29.29;26.15;99741.53;5109446;28;20081;-84
2022/05/15 09:43:33;;;;;;;1.48;0.55;;;;;;;29.18;27.30;99722.59;5109569;28;20027;-84
2022/05/15 09:46:11;;;;;;;0.98;0.73;;;;;;;29.63;27.15;99694.88;5109010;28;20141;-85
2022/05/15 09:48:50;;;;;;;0.93;0.70;;;;;;;30.32;26.50;99710.00;5107547;28;20043;-82
2022/05/15 09:51:26;;;;;;;0.57;0.52;;;;;;;29.98;25.63;99724.16;5104601;28;20051;-82
2022/05/15 09:53:54;;;;;;;1.15;0.80;;;;;;;30.34;24.78;99726.19;5108540;28;20047;-82
2022/05/15 09:56:20;;;;;;;1.75;0.93;;;;;;;29.93;24.64;99712.00;5103489;28;20024;-83
2022/05/15 09:58:52;;;;;;;0.82;0.55;;;;;;;29.98;24.20;99723.28;5094884;28;20411;-82
2022/05/15 10:02:09;;;;;;;0.43;0.40;;;;;;;30.13;25.38;99729.97;5105015;28;20031;-80
2022/05/15 10:04:40;;;;;;;12.73;0.80;;;;;;;30.39;24.49;99723.91;5039241;28;20045;-81
2022/05/15 10:07:09;;;;;;;1.30;0.60;;;;;;;30.32;25.85;99700.97;5045898;28;20067;-81
2022/05/15 10:09:40;;;;;;;0.55;0.40;;;;;;;30.62;25.17;99696.28;5067831;28;20112;-81
2022/05/15 10:12:17;;;;;;;0.75;0.50;;;;;;;30.46;25.31;99707.81;5087345;28;20119;-82
2022/05/15 10:14:54;;;;;;;1.50;0.70;;;;;;;30.66;24.63;99684.06;5092307;28;20123;-82
2022/05/15 10:17:23;;;;;;;1.20;0.80;;;;;;;30.86;23.01;99699.28;5100606;28;20035;-82
2022/05/15 10:20:10;;;;;;;1.50;1.40;;;;;;;30.23;22.35;99699.16;5099471;28;20039;-82
2022/05/15 10:23:00;;;;;;;0.80;0.52;;;;;;;30.00;24.21;99688.66;5107627;28;20139;-83
2022/05/15 10:25:33;;;;;;;3.20;0.68;;;;;;;29.60;25.37;99689.75;5106463;28;20810;-81
2022/05/15 10:28:09;;;;;;;1.02;0.93;;;;;;;30.20;23.68;99686.72;5104355;28;20030;-82
2022/05/15 10:30:48;;;;;;;0.38;0.38;;;;;;;30.61;23.28;99700.00;5103222;28;20122;-85
2022/05/15 10:33:18;;;;;;;3.95;0.80;;;;;;;30.23;22.37;99678.28;5107967;28;20039;-84
2022/05/15 10:36:01;;;;;;;2.20;1.10;;;;;;;30.11;22.64;99703.94;5107931;28;20042;-84
2022/05/15 10:38:48;;;;;;;2.17;0.68;;;;;;;30.32;22.42;99700.97;5107783;28;20114;-84
2022/05/15 10:41:19;;;;;;;0.73;0.50;;;;;;;30.24;22.50;99703.59;5108065;28;20032;-84
2022/05/15 10:44:03;;;;;;;5.05;0.93;;;;;;;30.50;23.50;99701.06;5108202;27;20115;-84
2022/05/15 10:46:47;;;;;;;1.30;0.70;;;;;;;30.79;22.24;99681.00;5108070;28;20118;-83
2022/05/15 10:49:34;;;;;;;0.80;0.38;;;;;;;30.88;23.26;99678.19;5108369;28;20051;-84
2022/05/15 10:52:12;;;;;;;0.65;0.60;;;;;;;30.70;22.06;99674.59;5108124;28;20534;-83
2022/05/15 10:58:03;;;;;;;0.50;0.50;;;;;;;30.55;22.29;99676.97;5108013;28;20861;-83
2022/05/15 11:00:49;;;;;;;0.77;0.32;;;;;;;30.75;20.96;99671.41;5107715;28;20042;-83
2022/05/15 11:03:29;;;;;;;6.95;4.53;;;;;;;30.62;21.67;99669.06;5106370;28;20101;-83
2022/05/15 11:06:30;;;;;;;2.22;1.75;;;;;;;30.89;21.42;99677.19;5107675;28;20032;-83
2022/05/15 11:09:11;;;;;;;0.80;0.60;;;;;;;30.55;21.75;99660.63;5107652;28;20031;-83
2022/05/15 11:11:58;;;;;;;3.75;1.63;;;;;;;30.20;22.43;99681.28;5103235;28;21821;-82
2022/05/15 11:14:52;;;;;;;2.88;1.40;;;;;;;30.07;21.57;99673.44;5106971;28;20027;-82
2022/05/15 11:17:39;;;;;;;1.00;0.60;;;;;;;30.06;23.16;99620.09;5103412;28;20070;-82
2022/05/15 11:20:16;;;;;;;3.75;1.58;;;;;;;30.26;23.00;99639.00;5107143;28;20032;-83
2022/05/15 11:22:49;;;;;;;2.08;0.88;;;;;;;30.23;22.22;99655.63;5105848;28;20475;-82
2022/05/15 11:25:28;;;;;;;1.75;1.42;;;;;;;30.21;22.33;99663.94;5105948;28;20119;-81
2022/05/15 11:28:04;;;;;;;2.22;1.40;;;;;;;30.52;22.19;99641.91;5106751;28;20031;-82
2022/05/15 11:30:33;;;;;;;5.88;2.05;;;;;;;30.34;22.62;99626.38;5107996;28;20106;-83
2022/05/15 11:33:08;;;;;;;4.50;1.67;;;;;;;30.43;22.48;99645.53;5107626;28;20467;-82
2022/05/15 11:35:38;;;;;;;0.98;0.60;;;;;;;30.03;22.56;99608.63;5104535;28;20027;-82
2022/05/15 11:38:28;;;;;;;6.10;3.15;;;;;;;30.34;23.00;99631.81;5106850;28;20039;-82
2022/05/15 11:40:54;;;;;;;3.53;2.20;;;;;;;30.38;21.32;99635.06;5098909;28;20115;-83
2022/05/15 11:43:26;;;;;;;2.00;0.73;;;;;;;30.68;21.64;99641.25;5087060;28;20039;-84
2022/05/15 11:45:54;;;;;;;1.00;0.90;;;;;;;30.59;21.25;99613.06;5086669;28;20052;-83
2022/05/15 11:48:27;;;;;;;0.65;0.40;;;;;;;30.62;23.46;99603.75;5086447;28;20036;-83
2022/05/15 11:51:12;;;;;;;0.47;0.40;;;;;;;30.67;20.72;99640.34;5086951;28;20095;-83
2022/05/15 11:53:50;;;;;;;1.33;0.55;;;;;;;30.69;19.74;99618.44;5099640;28;20020;-83
2022/05/15 11:56:30;;;;;;;1.23;0.75;;;;;;;31.04;21.57;99636.66;5107999;28;20039;-82
2022/05/15 11:59:21;;;;;;;2.22;1.38;;;;;;;30.98;20.77;99629.13;5102212;28;20051;-82
2022/05/15 12:01:48;;;;;;;0.98;0.80;;;;;;;31.10;19.81;99635.19;5105969;28;20034;-84
2022/05/15 12:04:36;;;;;;;3.47;1.58;;;;;;;31.12;21.04;99622.25;5104438;28;20112;-83